Time;durP1;ratioP1;P1;durP2;ratioP2;P2;SDS_P1;SDS_P2;PMS_P1;PMS_P2;Temp;Humidity;BMP_temperature;BMP_pressure;BME280_temperature;BME280_humidity;BME280_pressure;Samples;Min_cycle;Max_cycle;Signal;HPM_P1;HPM_P2
2021/06/05 00:00:34;;;;;;;27.42;23.70;;;16.90;99.90;;;;;;5033968;28;20429;-82
2021/06/05 00:03:02;;;;;;;24.27;21.35;;;16.90;99.90;;;;;;5020848;28;20037;-82
2021/06/05 00:05:36;;;;;;;27.25;22.02;;;16.80;99.90;;;;;;5038629;28;20144;-82
2021/06/05 00:08:05;;;;;;;25.75;22.48;;;16.80;99.90;;;;;;5047340;28;20546;-81
2021/06/05 00:10:37;;;;;;;26.10;22.45;;;16.90;99.90;;;;;;5033618;28;20052;-83
2021/06/05 00:13:08;;;;;;;27.80;24.63;;;16.90;99.90;;;;;;5030783;28;20049;-82
2021/06/05 00:15:38;;;;;;;27.10;22.95;;;17.00;99.90;;;;;;5036299;28;20049;-83
2021/06/05 00:18:05;;;;;;;31.13;25.75;;;16.90;99.90;;;;;;5010195;28;20469;-82
2021/06/05 00:20:33;;;;;;;29.95;24.98;;;17.00;99.90;;;;;;5051499;28;20322;-82
2021/06/05 00:23:02;;;;;;;28.52;23.95;;;17.00;99.90;;;;;;5021303;28;20049;-81
2021/06/05 00:25:30;;;;;;;29.45;26.27;;;16.90;99.90;;;;;;5020646;28;20049;-82
2021/06/05 00:27:57;;;;;;;29.77;24.25;;;16.80;99.90;;;;;;5069156;28;20498;-81
2021/06/05 00:30:25;;;;;;;30.25;24.23;;;16.80;99.90;;;;;;5051808;28;20244;-82
2021/06/05 00:32:52;;;;;;;29.27;25.80;;;16.80;99.90;;;;;;5052248;28;20045;-82
2021/06/05 00:35:21;;;;;;;31.17;25.25;;;17.00;99.90;;;;;;5022895;28;20049;-82
2021/06/05 00:37:48;;;;;;;27.67;24.88;;;16.90;99.90;;;;;;5048647;28;20047;-83
2021/06/05 00:40:17;;;;;;;29.77;25.52;;;17.00;99.90;;;;;;5062439;28;20684;-82
2021/06/05 00:42:44;;;;;;;29.27;25.70;;;17.00;99.90;;;;;;5028182;28;20049;-83
2021/06/05 00:45:14;;;;;;;32.47;25.40;;;16.80;99.90;;;;;;5041062;28;20113;-83
2021/06/05 00:47:41;;;;;;;26.70;24.00;;;16.70;99.90;;;;;;5059779;28;20052;-81
2021/06/05 00:50:11;;;;;;;24.35;21.92;;;16.80;99.90;;;;;;5043434;28;20056;-82
2021/06/05 00:52:40;;;;;;;27.00;24.10;;;16.90;99.90;;;;;;5059535;28;21205;-84
2021/06/05 00:55:11;;;;;;;29.55;25.20;;;16.90;99.90;;;;;;5057600;28;20411;-83
2021/06/05 00:57:38;;;;;;;28.15;23.27;;;16.90;99.90;;;;;;5041639;28;20070;-82
2021/06/05 01:00:14;;;;;;;27.52;24.38;;;16.90;99.90;;;;;;5058597;28;20306;-82
2021/06/05 01:02:41;;;;;;;27.77;24.33;;;17.10;99.90;;;;;;5031232;28;20041;-82
2021/06/05 01:05:09;;;;;;;27.95;24.85;;;17.00;99.90;;;;;;5039292;28;20052;-82
2021/06/05 01:07:37;;;;;;;28.58;24.08;;;17.00;99.90;;;;;;5032391;28;20048;-82
2021/06/05 01:10:23;;;;;;;30.58;25.25;;;17.00;99.90;;;;;;5006335;28;20384;-82
2021/06/05 01:12:56;;;;;;;31.05;25.50;;;17.10;99.90;;;;;;5027602;28;20109;-82
2021/06/05 01:15:40;;;;;;;31.08;27.60;;;17.10;99.90;;;;;;5039317;28;20071;-82
2021/06/05 01:18:33;;;;;;;29.70;26.52;;;17.10;99.90;;;;;;5022635;28;20457;-82
2021/06/05 01:21:21;;;;;;;35.97;29.98;;;17.10;99.90;;;;;;5043416;28;20136;-82
2021/06/05 01:24:27;;;;;;;37.38;30.15;;;17.10;99.90;;;;;;5038593;28;20049;-83
2021/06/05 01:27:00;;;;;;;31.85;28.42;;;17.10;99.90;;;;;;5022921;28;20054;-81
2021/06/05 01:29:38;;;;;;;34.22;29.30;;;17.10;99.90;;;;;;5025090;28;20084;-82
2021/06/05 01:32:11;;;;;;;40.60;31.23;;;16.90;99.90;;;;;;5026797;28;20037;-82
2021/06/05 01:34:49;;;;;;;43.55;32.13;;;16.90;99.90;;;;;;5064337;28;20053;-83
2021/06/05 01:37:21;;;;;;;32.22;28.23;;;16.90;99.90;;;;;;5043676;28;20053;-82
2021/06/05 01:39:55;;;;;;;35.15;30.70;;;17.00;99.90;;;;;;5045232;28;20072;-82
2021/06/05 01:42:29;;;;;;;42.42;33.25;;;17.00;99.90;;;;;;5043970;28;20101;-83
2021/06/05 01:44:59;;;;;;;34.70;30.88;;;17.00;99.90;;;;;;5053868;28;20057;-83
2021/06/05 01:47:27;;;;;;;39.20;32.38;;;16.90;99.90;;;;;;5036205;28;20138;-83
2021/06/05 01:49:55;;;;;;;36.58;31.88;;;16.90;99.90;;;;;;5040023;28;20095;-82
2021/06/05 01:52:28;;;;;;;35.13;31.42;;;16.80;99.90;;;;;;5060058;28;20045;-83
2021/06/05 01:55:10;;;;;;;37.42;31.90;;;16.80;99.90;;;;;;5023755;28;20045;-81
2021/06/05 01:57:43;;;;;;;38.60;31.75;;;16.80;99.90;;;;;;5044450;28;20082;-83
2021/06/05 02:00:34;;;;;;;36.45;30.17;;;16.70;99.90;;;;;;5055023;28;20116;-83
2021/06/05 02:03:04;;;;;;;33.33;27.85;;;16.50;99.90;;;;;;5048813;28;20092;-83
2021/06/05 02:05:35;;;;;;;35.83;26.80;;;16.50;99.90;;;;;;5067559;28;20117;-81
2021/06/05 02:08:10;;;;;;;35.25;27.98;;;16.60;99.90;;;;;;5056615;28;20041;-79
2021/06/05 02:10:38;;;;;;;36.25;28.98;;;16.50;99.90;;;;;;5035167;28;20056;-79
2021/06/05 02:13:12;;;;;;;37.72;28.70;;;16.60;99.90;;;;;;5035655;28;20041;-82
2021/06/05 02:16:22;;;;;;;35.83;29.90;;;16.70;99.90;;;;;;5041234;28;20403;-82
2021/06/05 02:18:56;;;;;;;39.90;32.33;;;16.60;99.90;;;;;;5053853;28;20530;-82
2021/06/05 02:21:35;;;;;;;36.85;32.05;;;16.50;99.90;;;;;;5064300;28;20243;-82
2021/06/05 02:24:28;;;;;;;49.85;33.42;;;16.50;99.90;;;;;;5037597;28;20043;-83
2021/06/05 02:26:55;;;;;;;38.53;30.65;;;16.40;99.90;;;;;;5061854;28;20064;-82
2021/06/05 02:29:36;;;;;;;37.95;30.95;;;16.40;99.90;;;;;;5064101;28;20056;-82
2021/06/05 02:32:12;;;;;;;36.35;29.10;;;16.30;99.90;;;;;;5044270;28;20087;-82
2021/06/05 02:34:42;;;;;;;36.70;29.98;;;16.40;99.90;;;;;;5054808;28;20072;-82
2021/06/05 02:37:11;;;;;;;35.00;29.77;;;16.50;99.90;;;;;;5031249;28;20052;-82
2021/06/05 02:39:42;;;;;;;33.70;29.52;;;16.50;99.90;;;;;;5045897;28;20052;-82
2021/06/05 02:42:17;;;;;;;41.65;32.10;;;16.60;99.90;;;;;;5044914;28;20040;-82
2021/06/05 02:44:48;;;;;;;35.80;31.05;;;16.60;99.90;;;;;;5036311;28;20067;-82
2021/06/05 02:47:17;;;;;;;41.35;33.78;;;16.60;99.90;;;;;;5029260;28;20475;-82
2021/06/05 02:49:45;;;;;;;47.05;34.05;;;16.70;99.90;;;;;;5026839;28;20073;-82
2021/06/05 02:52:32;;;;;;;47.83;35.63;;;16.60;99.90;;;;;;5024214;28;20128;-83
2021/06/05 02:55:13;;;;;;;50.40;39.83;;;16.60;99.90;;;;;;5029685;28;20052;-82
2021/06/05 02:57:43;;;;;;;64.00;44.17;;;16.50;99.90;;;;;;5052717;28;20094;-83
2021/06/05 03:00:24;;;;;;;65.75;45.05;;;16.40;99.90;;;;;;5067948;28;20056;-82
2021/06/05 03:02:52;;;;;;;59.53;42.38;;;16.40;99.90;;;;;;5052102;28;20045;-82
2021/06/05 03:05:21;;;;;;;65.68;44.42;;;16.40;99.90;;;;;;5043433;28;20104;-82
2021/06/05 03:07:48;;;;;;;48.92;36.90;;;16.30;99.90;;;;;;5071742;28;20033;-83
2021/06/05 03:10:17;;;;;;;44.30;34.47;;;16.20;99.90;;;;;;5036774;28;20063;-83
2021/06/05 03:12:45;;;;;;;48.22;37.47;;;16.20;99.90;;;;;;5035567;28;20048;-82
2021/06/05 03:15:14;;;;;;;47.47;37.10;;;16.20;99.90;;;;;;5044468;28;20077;-83
2021/06/05 03:17:42;;;;;;;48.17;37.15;;;16.20;99.90;;;;;;5034243;28;20093;-82
2021/06/05 03:20:14;;;;;;;55.42;39.50;;;16.20;99.90;;;;;;5043418;28;20297;-82
2021/06/05 03:22:42;;;;;;;47.72;38.40;;;16.20;99.90;;;;;;5068089;28;20048;-82
2021/06/05 03:25:09;;;;;;;44.88;36.63;;;16.10;99.90;;;;;;5055998;28;20373;-83
2021/06/05 03:27:38;;;;;;;51.85;38.95;;;16.10;99.90;;;;;;5065070;28;20056;-81
2021/06/05 03:30:07;;;;;;;54.22;39.38;;;16.10;99.90;;;;;;5042867;28;20049;-82
2021/06/05 03:32:36;;;;;;;50.67;40.35;;;16.10;99.90;;;;;;5068468;28;20071;-82
2021/06/05 03:35:05;;;;;;;58.85;40.97;;;16.20;99.90;;;;;;5084533;28;20071;-82
2021/06/05 03:37:32;;;;;;;61.70;43.60;;;16.20;99.90;;;;;;5043897;28;20041;-83
2021/06/05 03:40:00;;;;;;;64.47;43.63;;;16.30;99.90;;;;;;5031741;28;20045;-83
2021/06/05 03:42:33;;;;;;;69.43;47.28;;;16.20;99.90;;;;;;5038072;28;20051;-82
2021/06/05 03:45:00;;;;;;;61.03;44.75;;;16.30;99.90;;;;;;5020387;28;20052;-82
2021/06/05 03:47:27;;;;;;;60.25;42.95;;;16.40;99.90;;;;;;5022214;28;20110;-82
2021/06/05 03:49:58;;;;;;;55.60;40.33;;;16.30;99.90;;;;;;5040424;28;20054;-83
2021/06/05 03:52:25;;;;;;;63.13;44.13;;;16.30;99.90;;;;;;5053299;28;20068;-82
2021/06/05 03:54:55;;;;;;;59.28;44.88;;;16.40;99.90;;;;;;5040833;28;20094;-81
2021/06/05 03:57:24;;;;;;;62.17;43.75;;;16.40;99.90;;;;;;5055195;28;20053;-80
2021/06/05 03:59:53;;;;;;;69.72;46.83;;;16.50;99.90;;;;;;5025435;28;20051;-82
2021/06/05 04:02:21;;;;;;;61.63;45.58;;;16.70;99.90;;;;;;5027567;28;20045;-83
2021/06/05 04:04:49;;;;;;;58.20;44.28;;;16.60;99.90;;;;;;5038840;28;20072;-82
2021/06/05 04:07:17;;;;;;;60.05;44.38;;;16.70;99.90;;;;;;5028768;28;20055;-82
2021/06/05 04:09:45;;;;;;;58.05;41.97;;;16.60;99.90;;;;;;5018491;28;20323;-81
2021/06/05 04:12:13;;;;;;;52.45;40.33;;;16.60;99.90;;;;;;5055949;28;20082;-82
2021/06/05 04:14:41;;;;;;;51.75;37.70;;;16.60;99.90;;;;;;5040203;28;20057;-81
2021/06/05 04:17:09;;;;;;;56.58;43.10;;;16.80;99.90;;;;;;5037922;28;20059;-80
2021/06/05 04:19:37;;;;;;;57.58;44.25;;;16.80;99.90;;;;;;5019696;28;20037;-81
2021/06/05 04:22:06;;;;;;;50.88;41.20;;;16.90;99.90;;;;;;5035447;28;20292;-81
2021/06/05 04:24:34;;;;;;;53.83;41.70;;;16.90;99.90;;;;;;5037101;28;20057;-81
2021/06/05 04:27:01;;;;;;;45.65;37.85;;;17.00;99.90;;;;;;5053138;28;20055;-81
2021/06/05 04:29:28;;;;;;;45.65;36.05;;;17.00;99.90;;;;;;5039914;28;20060;-81
2021/06/05 04:31:56;;;;;;;42.65;34.45;;;17.10;99.90;;;;;;5052340;28;20063;-79
2021/06/05 04:34:23;;;;;;;41.53;35.53;;;17.10;99.90;;;;;;5050365;28;20056;-80
2021/06/05 04:36:50;;;;;;;45.00;36.92;;;17.30;99.90;;;;;;5024459;28;20047;-81
2021/06/05 04:39:18;;;;;;;44.33;34.70;;;17.30;99.90;;;;;;5041943;28;20107;-81
2021/06/05 04:41:45;;;;;;;41.75;34.35;;;17.50;99.90;;;;;;5037228;28;20041;-80
2021/06/05 04:44:12;;;;;;;46.40;35.83;;;17.60;99.90;;;;;;5037974;28;20111;-82
2021/06/05 04:46:39;;;;;;;49.00;38.70;;;17.70;99.90;;;;;;5039559;28;20047;-81
2021/06/05 04:49:08;;;;;;;43.78;35.63;;;17.70;99.90;;;;;;5043299;28;20155;-81
2021/06/05 04:51:37;;;;;;;43.78;35.92;;;17.80;99.90;;;;;;5048614;28;20197;-80
2021/06/05 04:54:05;;;;;;;42.03;36.03;;;17.90;99.90;;;;;;5034918;28;20055;-81
2021/06/05 04:56:42;;;;;;;42.00;37.50;;;18.10;99.90;;;;;;5041348;28;20287;-81
2021/06/05 04:59:10;;;;;;;46.38;37.47;;;18.20;99.90;;;;;;5092704;28;20041;-81
2021/06/05 05:01:37;;;;;;;47.47;39.33;;;18.20;99.90;;;;;;5040608;28;20056;-81
2021/06/05 05:04:06;;;;;;;49.97;38.50;;;18.20;99.90;;;;;;5047381;28;20029;-81
2021/06/05 05:06:33;;;;;;;45.25;36.10;;;18.20;99.90;;;;;;5049543;28;20113;-82
2021/06/05 05:09:00;;;;;;;51.13;38.83;;;18.40;99.90;;;;;;5064699;28;20420;-82
2021/06/05 05:11:27;;;;;;;44.08;37.58;;;18.50;99.90;;;;;;5035942;28;20041;-81
2021/06/05 05:13:54;;;;;;;43.00;36.30;;;18.50;99.90;;;;;;5025864;28;20041;-81
2021/06/05 05:16:21;;;;;;;53.15;38.70;;;18.50;99.90;;;;;;5029609;28;20041;-82
2021/06/05 05:18:49;;;;;;;49.95;40.72;;;18.60;99.90;;;;;;5059123;28;20056;-81
2021/06/05 05:21:17;;;;;;;49.42;40.47;;;18.60;99.90;;;;;;5043775;28;20048;-81
2021/06/05 05:23:44;;;;;;;49.95;40.40;;;18.70;99.90;;;;;;5044051;28;20055;-81
2021/06/05 05:26:12;;;;;;;51.15;40.80;;;18.60;99.90;;;;;;5033799;28;20059;-82
2021/06/05 05:28:40;;;;;;;51.72;40.85;;;18.50;99.90;;;;;;5058438;28;20494;-82
2021/06/05 05:31:11;;;;;;;52.83;41.40;;;18.50;99.90;;;;;;5036477;28;20080;-81
2021/06/05 05:33:38;;;;;;;60.55;45.33;;;18.50;99.90;;;;;;5035883;28;20067;-83
2021/06/05 05:36:16;;;;;;;58.22;45.95;;;18.50;99.90;;;;;;5047760;28;20037;-81
2021/06/05 05:38:43;;;;;;;66.07;45.90;;;18.60;99.90;;;;;;5041206;28;20053;-80
2021/06/05 05:41:13;;;;;;;61.70;46.53;;;18.50;99.90;;;;;;5043316;28;20041;-81
2021/06/05 05:43:40;;;;;;;71.97;50.55;;;18.40;99.90;;;;;;5030756;28;20033;-81
2021/06/05 05:46:08;;;;;;;64.43;48.25;;;18.40;99.90;;;;;;5043082;28;20053;-79
2021/06/05 05:48:36;;;;;;;75.10;48.25;;;18.40;99.90;;;;;;5047889;28;20037;-79
2021/06/05 05:51:05;;;;;;;70.22;49.75;;;18.40;99.90;;;;;;5041887;28;20454;-78
2021/06/05 05:53:32;;;;;;;77.18;51.80;;;18.20;99.90;;;;;;5026451;28;20419;-78
2021/06/05 05:55:59;;;;;;;80.35;51.67;;;18.10;99.90;;;;;;5026996;28;20212;-78
2021/06/05 05:58:26;;;;;;;76.43;52.22;;;18.00;99.90;;;;;;5028691;28;20102;-78
2021/06/05 06:00:53;;;;;;;80.70;53.08;;;17.90;99.90;;;;;;5041017;28;20076;-78
2021/06/05 06:03:39;;;;;;;85.72;54.53;;;18.00;99.90;;;;;;5024753;28;20053;-78
2021/06/05 06:06:07;;;;;;;81.65;52.95;;;18.10;99.90;;;;;;5041405;28;20254;-74
2021/06/05 06:08:35;;;;;;;77.30;52.67;;;18.10;99.90;;;;;;5030135;28;20045;-75
2021/06/05 06:11:04;;;;;;;83.72;54.13;;;18.10;99.90;;;;;;5029175;28;20165;-74
2021/06/05 06:13:30;;;;;;;88.20;55.08;;;18.10;99.90;;;;;;5029353;28;20056;-74
2021/06/05 06:15:57;;;;;;;90.03;55.90;;;18.20;99.90;;;;;;5027874;28;20069;-75
2021/06/05 06:18:24;;;;;;;83.25;55.28;;;18.20;99.90;;;;;;5024320;28;20378;-73
2021/06/05 06:20:54;;;;;;;95.15;55.80;;;18.20;99.90;;;;;;5028956;28;20402;-74
2021/06/05 06:23:24;;;;;;;80.40;53.63;;;18.40;99.90;;;;;;5023648;28;20466;-73
2021/06/05 06:25:51;;;;;;;99.25;59.10;;;18.50;99.90;;;;;;5036813;28;20098;-75
2021/06/05 06:28:22;;;;;;;80.35;54.08;;;18.60;99.90;;;;;;5039705;28;20747;-75
2021/06/05 06:30:49;;;;;;;86.00;57.38;;;18.80;99.90;;;;;;5046058;28;20044;-74
2021/06/05 06:33:17;;;;;;;73.90;52.20;;;18.80;99.90;;;;;;5047629;28;20586;-75
2021/06/05 06:35:44;;;;;;;87.90;58.53;;;18.90;99.90;;;;;;5054527;28;20468;-75
2021/06/05 06:38:15;;;;;;;89.07;58.83;;;18.90;99.90;;;;;;5045258;28;20053;-75
2021/06/05 06:40:42;;;;;;;83.15;56.80;;;19.00;99.90;;;;;;5044761;28;20590;-75
2021/06/05 06:43:12;;;;;;;83.75;54.90;;;19.10;99.90;;;;;;5046295;28;20037;-74
2021/06/05 06:45:51;;;;;;;92.32;60.03;;;19.20;99.90;;;;;;5030257;28;20136;-74
2021/06/05 06:48:19;;;;;;;81.18;56.25;;;19.30;99.90;;;;;;5043627;28;20135;-75
2021/06/05 06:50:47;;;;;;;98.18;64.57;;;19.50;99.90;;;;;;5039957;28;20053;-75
2021/06/05 06:53:13;;;;;;;98.25;64.85;;;19.60;99.90;;;;;;5041549;28;20044;-75
2021/06/05 06:55:40;;;;;;;107.43;66.43;;;19.50;99.90;;;;;;5048740;28;20416;-75
2021/06/05 06:58:07;;;;;;;92.93;61.97;;;19.70;99.90;;;;;;5066192;28;20048;-76
2021/06/05 07:00:42;;;;;;;104.80;65.93;;;19.90;99.90;;;;;;5063970;28;20048;-75
2021/06/05 07:03:09;;;;;;;102.20;66.82;;;20.00;99.90;;;;;;5057029;28;20714;-75
2021/06/05 07:05:37;;;;;;;101.88;63.40;;;19.90;99.90;;;;;;5048079;28;20079;-75
2021/06/05 07:08:24;;;;;;;102.47;66.47;;;19.70;99.90;;;;;;5046900;28;20075;-75
2021/06/05 07:10:58;;;;;;;97.72;62.50;;;19.70;99.90;;;;;;5063696;28;20114;-76
2021/06/05 07:13:26;;;;;;;101.40;64.38;;;19.80;99.90;;;;;;5045204;28;20056;-76
2021/06/05 07:15:56;;;;;;;86.43;58.65;;;19.90;99.90;;;;;;5046188;28;20075;-76
2021/06/05 07:18:24;;;;;;;87.47;58.67;;;20.10;99.90;;;;;;5064166;28;20053;-75
2021/06/05 07:20:52;;;;;;;91.65;59.60;;;20.10;99.90;;;;;;5061091;28;20040;-76
2021/06/05 07:23:21;;;;;;;80.32;59.20;;;20.00;99.90;;;;;;5027953;28;20111;-73
2021/06/05 07:25:49;;;;;;;87.10;60.80;;;20.10;99.90;;;;;;5043382;28;20068;-73
2021/06/05 07:28:22;;;;;;;79.63;57.78;;;20.00;99.90;;;;;;5045957;28;20080;-74
2021/06/05 07:30:51;;;;;;;77.47;57.42;;;20.00;99.90;;;;;;5071889;28;20048;-74
2021/06/05 07:33:18;;;;;;;75.53;53.65;;;20.00;99.90;;;;;;5071484;28;20049;-75
2021/06/05 07:35:46;;;;;;;72.53;53.95;;;20.20;99.90;;;;;;5088755;28;20036;-73
2021/06/05 07:38:14;;;;;;;70.40;53.42;;;20.30;99.90;;;;;;5069506;28;20518;-74
2021/06/05 07:40:43;;;;;;;78.13;55.05;;;20.10;99.90;;;;;;5053907;28;20048;-74
2021/06/05 07:43:12;;;;;;;76.18;54.35;;;20.10;99.90;;;;;;5062932;28;20036;-74
2021/06/05 07:45:39;;;;;;;73.18;53.08;;;20.00;99.90;;;;;;5040895;28;20122;-74
2021/06/05 07:48:06;;;;;;;75.05;54.35;;;19.90;99.90;;;;;;5043671;28;20057;-74
2021/06/05 07:50:33;;;;;;;75.97;55.05;;;19.90;99.90;;;;;;5044934;28;20056;-74
2021/06/05 07:53:00;;;;;;;73.75;54.25;;;19.90;99.90;;;;;;5027444;28;20048;-74
2021/06/05 07:55:28;;;;;;;70.55;53.85;;;19.90;99.90;;;;;;5041974;28;20056;-76
2021/06/05 07:57:55;;;;;;;70.10;51.97;;;19.80;99.90;;;;;;5043887;28;20049;-74
2021/06/05 08:00:28;;;;;;;65.57;49.92;;;19.90;99.90;;;;;;5043236;28;20049;-74
2021/06/05 08:02:55;;;;;;;56.10;44.25;;;20.00;99.90;;;;;;5040592;28;20414;-74
2021/06/05 08:05:23;;;;;;;55.15;43.88;;;20.00;99.90;;;;;;5043476;28;20169;-75
2021/06/05 08:07:50;;;;;;;45.85;39.35;;;19.90;99.90;;;;;;5045190;28;20048;-74
2021/06/05 08:10:19;;;;;;;40.40;33.90;;;20.00;99.90;;;;;;5042998;28;20057;-74
2021/06/05 08:12:46;;;;;;;43.70;35.50;;;19.90;99.90;;;;;;5033176;28;20076;-75
2021/06/05 08:15:16;;;;;;;37.53;33.15;;;19.80;99.90;;;;;;5024399;28;20091;-75
2021/06/05 08:17:43;;;;;;;40.05;34.03;;;19.80;99.90;;;;;;5025738;28;20053;-75
2021/06/05 08:20:14;;;;;;;43.45;37.17;;;19.60;99.90;;;;;;5043193;28;20045;-75
2021/06/05 08:22:41;;;;;;;43.50;35.80;;;19.40;99.90;;;;;;5060704;28;20052;-75
2021/06/05 08:25:09;;;;;;;39.08;33.63;;;19.60;99.90;;;;;;5044431;28;20052;-75
2021/06/05 08:27:38;;;;;;;42.30;33.95;;;19.80;99.90;;;;;;5044813;28;20107;-74
2021/06/05 08:30:09;;;;;;;38.95;32.22;;;20.00;99.90;;;;;;5042424;28;20102;-75
2021/06/05 08:32:36;;;;;;;41.33;34.55;;;20.10;99.90;;;;;;5037090;28;20040;-74
2021/06/05 08:35:03;;;;;;;40.17;34.38;;;20.20;99.90;;;;;;5040954;28;20910;-75
2021/06/05 08:37:30;;;;;;;43.08;33.75;;;20.30;99.90;;;;;;5035927;28;20064;-75
2021/06/05 08:39:57;;;;;;;43.22;33.85;;;20.40;99.90;;;;;;5042548;28;20060;-75
2021/06/05 08:42:35;;;;;;;34.33;30.00;;;20.50;99.90;;;;;;5043951;28;20393;-74
2021/06/05 08:45:03;;;;;;;29.08;25.67;;;20.60;99.90;;;;;;5023037;28;20048;-74
2021/06/05 08:47:37;;;;;;;32.95;29.52;;;20.70;99.90;;;;;;5027668;28;20417;-73
2021/06/05 08:50:16;;;;;;;32.55;26.90;;;20.60;99.90;;;;;;5035409;28;20055;-74
2021/06/05 08:52:53;;;;;;;30.15;26.88;;;20.70;99.90;;;;;;5042669;28;20049;-74
2021/06/05 08:55:34;;;;;;;29.08;25.17;;;20.70;99.90;;;;;;5038189;28;20061;-75
2021/06/05 08:58:35;;;;;;;27.77;24.15;;;20.50;99.90;;;;;;5024359;28;20518;-74
2021/06/05 09:01:09;;;;;;;23.77;21.33;;;20.50;99.90;;;;;;5025598;28;20111;-74
2021/06/05 09:03:38;;;;;;;32.42;23.20;;;20.40;99.90;;;;;;5032695;28;20517;-74
2021/06/05 09:06:17;;;;;;;29.10;23.13;;;20.50;99.90;;;;;;5019265;28;20048;-74
2021/06/05 09:08:45;;;;;;;26.70;22.70;;;20.40;99.90;;;;;;5042490;28;20048;-74
2021/06/05 09:11:13;;;;;;;25.85;22.20;;;20.40;99.90;;;;;;5022675;28;20053;-75
2021/06/05 09:13:41;;;;;;;23.90;21.40;;;20.40;99.90;;;;;;5045096;28;20056;-74
2021/06/05 09:16:20;;;;;;;24.65;21.58;;;20.50;99.90;;;;;;5041365;28;20041;-75
2021/06/05 09:19:08;;;;;;;24.20;21.63;;;20.70;99.90;;;;;;5044195;28;20041;-75
2021/06/05 09:22:04;;;;;;;24.80;21.92;;;20.80;99.90;;;;;;5033362;28;20053;-74
2021/06/05 09:24:34;;;;;;;30.05;26.95;;;21.00;99.90;;;;;;5017768;28;20572;-74
2021/06/05 09:27:19;;;;;;;29.70;25.40;;;20.70;99.90;;;;;;5021863;28;20046;-73
2021/06/05 09:29:55;;;;;;;27.23;24.42;;;20.50;99.90;;;;;;5021960;28;20519;-75
2021/06/05 09:32:32;;;;;;;33.60;27.27;;;20.40;99.90;;;;;;5027742;28;20112;-74
2021/06/05 09:35:05;;;;;;;30.08;26.70;;;20.50;99.90;;;;;;5032036;28;20049;-74
2021/06/05 09:37:49;;;;;;;32.30;28.13;;;20.60;99.90;;;;;;5036424;28;20068;-75
2021/06/05 09:40:26;;;;;;;36.08;28.60;;;20.60;99.90;;;;;;5027271;28;20088;-75
2021/06/05 09:43:18;;;;;;;36.75;28.75;;;20.50;99.90;;;;;;5051430;28;20040;-75
2021/06/05 09:46:08;;;;;;;43.72;34.40;;;20.30;99.90;;;;;;5037990;28;20487;-75
2021/06/05 09:48:46;;;;;;;51.92;36.90;;;20.00;99.90;;;;;;5029653;28;20068;-75
2021/06/05 09:51:35;;;;;;;53.13;38.33;;;19.80;99.90;;;;;;5049424;28;20538;-75
2021/06/05 09:54:26;;;;;;;51.28;38.95;;;19.80;99.90;;;;;;5056797;28;20449;-75
2021/06/05 09:57:27;;;;;;;58.13;40.15;;;19.90;99.90;;;;;;5049538;28;20504;-76
2021/06/05 10:00:10;;;;;;;56.28;41.22;;;20.30;99.90;;;;;;5068120;28;20114;-76
2021/06/05 10:02:47;;;;;;;60.03;40.25;;;20.50;99.90;;;;;;5054705;28;20045;-77
2021/06/05 10:05:34;;;;;;;59.55;39.63;;;20.50;99.90;;;;;;5057400;28;20110;-77
2021/06/05 10:08:18;;;;;;;61.95;41.60;;;20.60;99.90;;;;;;5049025;28;20048;-77
2021/06/05 10:10:50;;;;;;;56.45;41.35;;;20.60;99.90;;;;;;5063987;28;20049;-77
2021/06/05 10:13:24;;;;;;;56.47;40.42;;;20.70;99.90;;;;;;5065072;28;20053;-77
2021/06/05 10:15:59;;;;;;;58.33;40.28;;;20.90;99.90;;;;;;5063154;28;20044;-77
2021/06/05 10:18:33;;;;;;;50.58;37.03;;;21.00;99.90;;;;;;5060846;28;20048;-77
2021/06/05 10:21:08;;;;;;;54.00;38.03;;;21.00;99.90;;;;;;5031133;28;20138;-77
2021/06/05 10:23:39;;;;;;;48.90;39.72;;;21.00;99.90;;;;;;5062117;28;20533;-77
2021/06/05 10:26:27;;;;;;;50.92;40.72;;;21.20;99.90;;;;;;5054394;28;20056;-78
2021/06/05 10:29:00;;;;;;;48.17;39.50;;;21.60;99.90;;;;;;5056250;28;20041;-79
2021/06/05 10:31:27;;;;;;;45.38;36.83;;;21.80;99.90;;;;;;5059153;28;20503;-78
2021/06/05 10:34:03;;;;;;;40.22;35.70;;;22.40;99.90;;;;;;5064891;28;20391;-77
2021/06/05 10:36:44;;;;;;;39.00;34.65;;;23.00;99.90;;;;;;5059766;28;20116;-77
2021/06/05 10:39:15;;;;;;;43.70;36.67;;;23.00;99.90;;;;;;5050968;28;20072;-78
2021/06/05 10:41:53;;;;;;;44.53;37.90;;;23.00;99.90;;;;;;5038709;28;20052;-78
2021/06/05 10:44:22;;;;;;;49.20;38.83;;;22.90;99.90;;;;;;5056884;28;20052;-79
2021/06/05 10:47:12;;;;;;;44.30;36.28;;;23.00;99.90;;;;;;5038069;28;20060;-77
2021/06/05 10:49:54;;;;;;;37.20;33.10;;;23.20;99.90;;;;;;5034206;28;20057;-77
2021/06/05 10:52:25;;;;;;;47.40;39.53;;;23.40;99.90;;;;;;5048695;28;20136;-77
2021/06/05 10:55:10;;;;;;;43.17;36.13;;;23.20;99.90;;;;;;5049428;28;20053;-77
2021/06/05 10:57:43;;;;;;;41.22;36.72;;;23.20;99.90;;;;;;5051076;28;20451;-77
2021/06/05 11:00:22;;;;;;;41.35;35.72;;;23.50;99.90;;;;;;5029947;28;20444;-77
2021/06/05 11:02:51;;;;;;;44.55;36.40;;;23.70;99.90;;;;;;5040279;28;20052;-77
2021/06/05 11:05:26;;;;;;;43.67;35.97;;;23.50;99.90;;;;;;5042377;28;20107;-78
2021/06/05 11:08:09;;;;;;;38.20;33.35;;;23.40;99.90;;;;;;5051261;28;20453;-78
2021/06/05 11:10:50;;;;;;;44.33;36.95;;;23.50;99.90;;;;;;5051646;28;20063;-78
2021/06/05 11:13:35;;;;;;;42.03;35.83;;;23.50;99.90;;;;;;5041450;28;20127;-78
2021/06/05 11:16:06;;;;;;;42.78;35.53;;;23.70;99.90;;;;;;5021502;28;20609;-78
2021/06/05 11:18:46;;;;;;;43.63;36.13;;;23.60;99.90;;;;;;5032590;28;20041;-78
2021/06/05 11:21:22;;;;;;;43.10;37.47;;;23.70;99.90;;;;;;5042682;28;20065;-78
2021/06/05 11:23:55;;;;;;;42.40;37.83;;;23.60;99.90;;;;;;5047473;28;20124;-76
2021/06/05 11:26:40;;;;;;;46.92;40.42;;;23.40;99.90;;;;;;5047242;28;20179;-76
2021/06/05 11:29:19;;;;;;;45.55;37.30;;;23.50;99.90;;;;;;5042722;28;20099;-76
2021/06/05 11:32:22;;;;;;;44.35;37.65;;;23.60;99.90;;;;;;5030939;28;20491;-76
2021/06/05 11:35:00;;;;;;;40.83;35.00;;;23.40;99.90;;;;;;5031515;28;20072;-76
2021/06/05 11:37:32;;;;;;;37.75;33.75;;;23.50;99.90;;;;;;5035780;28;20495;-75
2021/06/05 11:40:02;;;;;;;43.58;38.90;;;23.60;99.90;;;;;;5023054;28;20046;-77
2021/06/05 11:42:29;;;;;;;42.28;37.92;;;23.60;99.90;;;;;;5024807;28;20056;-76
2021/06/05 11:44:56;;;;;;;44.10;39.38;;;23.60;99.90;;;;;;5024949;28;20057;-76
2021/06/05 11:47:22;;;;;;;42.13;37.63;;;23.60;99.90;;;;;;5033459;28;20096;-77
2021/06/05 11:50:23;;;;;;;46.60;41.53;;;23.40;99.90;;;;;;5025929;28;20608;-76
2021/06/05 11:52:55;;;;;;;39.00;34.97;;;23.20;99.90;;;;;;5034365;28;20063;-76
2021/06/05 11:55:34;;;;;;;42.22;37.70;;;23.10;99.90;;;;;;5019470;28;20076;-76
2021/06/05 11:58:06;;;;;;;32.75;29.55;;;23.00;99.90;;;;;;5038097;28;20049;-76
2021/06/05 12:00:40;;;;;;;39.45;35.20;;;23.20;99.90;;;;;;5039214;28;20049;-76
2021/06/05 12:03:23;;;;;;;39.27;35.03;;;23.60;99.90;;;;;;5026982;28;20053;-76
2021/06/05 12:05:50;;;;;;;39.50;35.40;;;23.50;99.90;;;;;;5034098;28;20824;-76
2021/06/05 12:08:35;;;;;;;40.35;36.03;;;23.60;99.90;;;;;;5034929;28;20053;-76
2021/06/05 12:11:32;;;;;;;39.88;35.65;;;23.40;99.90;;;;;;5027062;28;20074;-76
2021/06/05 12:14:12;;;;;;;41.75;37.30;;;23.40;99.90;;;;;;5035384;28;20103;-76
2021/06/05 12:16:54;;;;;;;35.90;32.30;;;23.60;99.90;;;;;;5040741;28;20485;-76
2021/06/05 12:19:28;;;;;;;32.42;29.27;;;23.90;99.90;;;;;;5029706;28;20053;-76
2021/06/05 12:22:20;;;;;;;38.30;34.28;;;24.30;99.90;;;;;;5034347;28;20096;-75
2021/06/05 12:24:52;;;;;;;38.78;34.58;;;24.10;99.90;;;;;;5030889;28;20049;-75
2021/06/05 12:27:32;;;;;;;38.15;34.15;;;23.90;99.90;;;;;;5042569;28;20048;-76
2021/06/05 12:30:27;;;;;;;40.97;36.78;;;23.70;99.90;;;;;;5032353;28;20049;-76
2021/06/05 12:33:03;;;;;;;42.15;37.50;;;23.60;99.90;;;;;;5029945;28;20534;-77
2021/06/05 12:35:44;;;;;;;43.05;38.53;;;23.40;99.90;;;;;;5040654;28;20453;-77
2021/06/05 12:38:28;;;;;;;46.60;41.70;;;23.00;99.90;;;;;;5051197;28;20926;-77
2021/06/05 12:40:59;;;;;;;46.83;41.72;;;22.90;99.90;;;;;;5044065;28;20041;-77
2021/06/05 12:43:31;;;;;;;41.38;36.72;;;22.60;99.90;;;;;;5044705;28;20065;-76
2021/06/05 12:46:07;;;;;;;39.90;35.53;;;22.40;99.90;;;;;;5024471;28;20055;-78
2021/06/05 12:48:34;;;;;;;45.63;37.05;;;21.70;99.90;;;;;;5035361;28;20053;-75
2021/06/05 12:51:05;;;;;;;46.13;40.33;;;21.30;99.90;;;;;;5028337;28;20053;-75
2021/06/05 12:53:33;;;;;;;49.42;38.95;;;21.20;99.90;;;;;;5026754;28;20037;-77